Decoded Metar for RCKH (KAOHSIUNG in TAIWAN) (IATA:KHH) | Meteo·Mobile Aviation Weather
aviador You're here:

RCKH Decoded Metar

KAOHSIUNG in TAIWAN
Report Time2018-12-10 10:30:00
UTC Time2018-12-10 11:07:37
Flight Rules mvfr MVFR
Wind350° at 04 kt
W.Decomp.*RWY 27: 0.5 kt HW 4.0 kt RCW
W.Rank350° ranks 6
Current wind is below 350° avg. (6.1)
Visibility6000 m
Phenomena:N/A
Clouds:Few 016 Hf
Broken 100 Hf
Expected CloudBase > 2,400 ft AGL from Temp-Dew spread
Ceiling10,000 ft
Temp25°C (ISA +10)
Dew Point19°C (69% RH)
QNH1015 hPa
Density Alt1,417 ft
Elevation30 ft
Report Wrong Elevation
Raw Report
METAR RCKH 101030Z 35004KT 6000 FEW016 BKN100 25/19 Q1015 NOSIG RMK
A3000=

Extra information for RCKH:More info

Metar Taf Metar & Taf Last 4 Metars F.Rules Stats Wind Profile Meteogram Temp Stats Airport Information Weather charts Add Link Nearby VenuesMetar ALERT Operation Metar Decoded Social comments